Time,TemperatureF,DewpointF,PressureIn,WindDirection,WindDirectionDegrees,WindSpeedMPH,WindSpeedGustMPH,Humidity,HourlyPrecipIn,Conditions,Clouds,dailyrainin,SolarRadiationWatts/m^2,SoftwareType,DateUTC
2013-02-28 00:03:00,18.2,9.1,30.35,South,180,2.0,8.0,67,0.00,RA,,0.00,0.0,WeatherDisplay:10.37,2013-02-28 07:03:00,
2013-02-28 00:08:00,18.1,9.0,30.35,South,183,2.0,4.0,67,0.00,RA,,0.00,0.0,WeatherDisplay:10.37,2013-02-28 07:08:00,
2013-02-28 00:13:00,18.0,8.9,30.37,South,190,2.0,4.0,67,0.00,RA,,0.00,0.0,WeatherDisplay:10.37,2013-02-28 07:13:00,
2013-02-28 00:18:00,17.9,8.8,30.36,South,190,2.0,4.0,67,0.00,RA,,0.00,0.0,WeatherDisplay:10.37,2013-02-28 07:18:00,
2013-02-28 00:23:00,17.7,8.6,30.41,South,190,1.0,3.0,67,0.00,RA,,0.00,0.0,WeatherDisplay:10.37,2013-02-28 07:23:00,
2013-02-28 00:28:00,17.6,8.5,30.89,South,190,1.0,3.0,67,0.00,CLR,,0.00,0.0,WeatherDisplay:10.37,2013-02-28 07:28:00,
2013-02-28 00:38:00,17.4,8.6,30.93,South,190,0.0,2.0,68,0.00,CLR,,0.00,0.0,WeatherDisplay:10.37,2013-02-28 07:38:00,
2013-02-28 00:48:00,17.2,8.4,30.92,South,190,0.0,2.0,68,0.00,CLR,,0.00,0.0,WeatherDisplay:10.37,2013-02-28 07:48:00,
2013-02-28 00:53:00,17.0,7.9,30.41,South,190,1.0,2.0,67,0.00,CLR,,0.00,0.0,WeatherDisplay:10.37,2013-02-28 07:53:00,
2013-02-28 00:58:00,16.9,7.8,30.47,South,190,0.0,2.0,67,0.00,CLR,,0.00,0.0,WeatherDisplay:10.37,2013-02-28 07:58:00,
2013-02-28 01:03:00,16.8,7.7,30.40,South,190,0.0,0.0,67,0.00,CLR,,0.00,0.0,WeatherDisplay:10.37,2013-02-28 08:03:00,
2013-02-28 01:08:00,16.6,7.9,30.43,South,190,0.0,3.0,68,0.00,CLR,,0.00,0.0,WeatherDisplay:10.37,2013-02-28 08:08:00,
2013-02-28 01:18:00,16.3,7.6,30.42,South,190,0.0,0.0,68,0.00,CLR,,0.00,0.0,WeatherDisplay:10.37,2013-02-28 08:18:00,
2013-02-28 01:23:00,16.2,7.5,30.38,South,190,0.0,2.0,68,0.00,CLR,,0.00,0.0,WeatherDisplay:10.37,2013-02-28 08:23:00,
2013-02-28 01:28:00,16.1,7.4,30.38,South,190,0.0,2.0,68,0.00,CLR,,0.00,0.0,WeatherDisplay:10.37,2013-02-28 08:28:00,
2013-02-28 01:38:00,15.8,7.4,30.38,South,188,2.0,4.0,69,0.00,CLR,,0.00,0.0,WeatherDisplay:10.37,2013-02-28 08:38:00,
2013-02-28 01:48:00,15.6,7.2,30.38,South,190,1.0,3.0,69,0.00,CLR,,0.00,0.0,WeatherDisplay:10.37,2013-02-28 08:48:00,
2013-02-28 01:53:00,15.5,7.5,30.38,South,190,0.0,2.0,70,0.00,CLR,,0.00,0.0,WeatherDisplay:10.37,2013-02-28 08:53:00,
2013-02-28 01:58:00,15.4,7.4,30.95,South,190,0.0,2.0,70,0.00,CLR,,0.00,0.0,WeatherDisplay:10.37,2013-02-28 08:58:00,
2013-02-28 02:03:00,15.4,7.3,30.91,South,190,2.0,5.0,70,0.00,CLR,,0.00,0.0,WeatherDisplay:10.37,2013-02-28 09:03:00,
2013-02-28 02:08:00,15.3,7.3,30.91,South,180,2.0,4.0,70,0.00,CLR,,0.00,0.0,WeatherDisplay:10.37,2013-02-28 09:08:00,
2013-02-28 02:18:00,15.2,7.5,30.91,SSE,166,2.0,4.0,71,0.00,CLR,,0.00,0.0,WeatherDisplay:10.37,2013-02-28 09:18:00,
2013-02-28 02:23:00,15.2,7.5,30.82,South,171,2.0,4.0,71,0.00,CLR,,0.00,0.0,WeatherDisplay:10.37,2013-02-28 09:23:00,
2013-02-28 02:28:00,15.2,7.5,30.85,South,175,2.0,5.0,71,0.00,CLR,,0.00,0.0,WeatherDisplay:10.37,2013-02-28 09:28:00,
2013-02-28 02:33:00,15.1,7.4,30.84,South,178,3.0,6.0,71,0.00,CLR,,0.00,0.0,WeatherDisplay:10.37,2013-02-28 09:33:00,
2013-02-28 02:38:00,15.2,7.5,30.80,South,184,3.0,6.0,71,0.00,CLR,,0.00,0.0,WeatherDisplay:10.37,2013-02-28 09:38:00,
2013-02-28 02:48:00,15.1,7.4,30.83,South,187,2.0,4.0,71,0.00,CLR,,0.00,0.0,WeatherDisplay:10.37,2013-02-28 09:48:00,
2013-02-28 02:58:00,15.0,7.0,30.75,South,188,3.0,5.0,70,0.00,CLR,,0.00,0.0,WeatherDisplay:10.37,2013-02-28 09:58:00,
2013-02-28 03:08:00,15.0,6.9,30.42,South,190,2.0,4.0,70,0.00,CLR,,0.00,0.0,WeatherDisplay:10.37,2013-02-28 10:08:00,
2013-02-28 03:13:00,14.9,6.9,30.38,South,190,3.0,5.0,70,0.00,CLR,,0.00,0.0,WeatherDisplay:10.37,2013-02-28 10:13:00,
2013-02-28 03:18:00,14.9,6.9,30.44,South,184,2.0,5.0,70,0.00,CLR,,0.00,0.0,WeatherDisplay:10.37,2013-02-28 10:18:00,
2013-02-28 03:23:00,14.8,6.8,30.44,South,182,2.0,5.0,70,0.00,CLR,,0.00,0.0,WeatherDisplay:10.37,2013-02-28 10:23:00,
2013-02-28 03:28:00,14.8,6.8,30.44,South,184,2.0,4.0,70,0.00,CLR,,0.00,0.0,WeatherDisplay:10.37,2013-02-28 10:28:00,
2013-02-28 03:33:00,14.7,6.7,30.37,South,184,2.0,4.0,70,0.00,CLR,,0.00,0.0,WeatherDisplay:10.37,2013-02-28 10:33:00,
2013-02-28 03:38:00,14.7,7.0,30.36,South,186,2.0,4.0,71,0.00,CLR,,0.00,0.0,WeatherDisplay:10.37,2013-02-28 10:38:00,
2013-02-28 03:48:00,14.6,6.9,30.37,South,185,2.0,5.0,71,0.00,CLR,,0.00,0.0,WeatherDisplay:10.37,2013-02-28 10:48:00,
2013-02-28 03:53:00,14.5,6.8,30.37,South,183,2.0,5.0,71,0.00,CLR,,0.00,0.0,WeatherDisplay:10.37,2013-02-28 10:53:00,
2013-02-28 03:58:00,14.5,6.8,30.37,South,178,2.0,5.0,71,0.00,CLR,,0.00,0.0,WeatherDisplay:10.37,2013-02-28 10:58:00,
2013-02-28 04:08:00,14.4,6.4,30.94,South,184,2.0,5.0,70,0.00,CLR,,0.00,0.0,WeatherDisplay:10.37,2013-02-28 11:08:00,
2013-02-28 04:18:00,14.4,6.4,30.99,South,181,2.0,5.0,70,0.00,CLR,,0.00,0.0,WeatherDisplay:10.37,2013-02-28 11:18:00,
2013-02-28 04:28:00,14.4,6.4,30.95,South,178,2.0,5.0,70,0.00,CLR,,0.00,0.0,WeatherDisplay:10.37,2013-02-28 11:28:00,
2013-02-28 04:38:00,14.4,6.4,30.97,South,178,2.0,3.0,70,0.00,CLR,,0.00,0.0,WeatherDisplay:10.37,2013-02-28 11:38:00,
2013-02-28 04:48:00,14.4,6.1,30.97,South,175,3.0,5.0,69,0.00,CLR,,0.00,0.0,WeatherDisplay:10.37,2013-02-28 11:48:00,
2013-02-28 04:58:00,14.5,6.2,30.97,South,177,3.0,5.0,69,0.00,CLR,,0.00,0.0,WeatherDisplay:10.37,2013-02-28 11:58:00,
2013-02-28 05:03:00,14.6,6.3,30.97,South,178,3.0,5.0,69,0.00,CLR,,0.00,0.0,WeatherDisplay:10.37,2013-02-28 12:03:00,
2013-02-28 05:08:00,14.6,6.3,30.97,South,175,3.0,5.0,69,0.00,CLR,,0.00,0.0,WeatherDisplay:10.37,2013-02-28 12:08:00,
2013-02-28 05:18:00,14.6,6.0,30.36,South,177,3.0,5.0,68,0.00,CLR,,0.00,0.0,WeatherDisplay:10.37,2013-02-28 12:18:00,
2013-02-28 05:23:00,14.6,6.0,30.37,South,178,2.0,5.0,68,0.00,CLR,,0.00,0.0,WeatherDisplay:10.37,2013-02-28 12:23:00,
2013-02-28 05:28:00,14.7,6.0,30.37,South,180,2.0,6.0,68,0.00,CLR,,0.00,0.0,WeatherDisplay:10.37,2013-02-28 12:28:00,
2013-02-28 05:38:00,14.6,6.0,30.46,South,185,2.0,5.0,68,0.00,CLR,,0.00,0.0,WeatherDisplay:10.37,2013-02-28 12:38:00,
2013-02-28 05:43:00,14.7,6.0,30.46,South,180,3.0,5.0,68,0.00,CLR,,0.00,0.0,WeatherDisplay:10.37,2013-02-28 12:43:00,
2013-02-28 05:48:00,14.7,5.7,30.37,South,177,3.0,6.0,67,0.00,CLR,,0.00,0.0,WeatherDisplay:10.37,2013-02-28 12:48:00,
2013-02-28 05:53:00,14.8,5.8,30.37,South,175,3.0,7.0,67,0.00,CLR,,0.00,0.0,WeatherDisplay:10.37,2013-02-28 12:53:00,
2013-02-28 05:58:00,14.8,5.8,30.36,South,176,2.0,5.0,67,0.00,CLR,,0.00,0.0,WeatherDisplay:10.37,2013-02-28 12:58:00,
2013-02-28 06:03:00,14.8,5.8,30.36,South,181,3.0,5.0,67,0.00,CLR,,0.00,0.0,WeatherDisplay:10.37,2013-02-28 13:03:00,
2013-02-28 06:08:00,14.8,5.8,30.36,South,179,5.0,6.0,67,0.00,CLR,,0.00,0.0,WeatherDisplay:10.37,2013-02-28 13:08:00,
2013-02-28 06:18:00,14.8,5.8,30.36,South,179,3.0,7.0,67,0.00,FEW,,0.00,0.0,WeatherDisplay:10.37,2013-02-28 13:18:00,
2013-02-28 06:23:00,14.7,5.7,30.36,South,176,2.0,5.0,67,0.00,FEW,,0.00,0.0,WeatherDisplay:10.37,2013-02-28 13:23:00,
2013-02-28 06:28:00,14.7,5.7,30.36,South,173,5.0,8.0,67,0.00,FEW,,0.00,0.0,WeatherDisplay:10.37,2013-02-28 13:28:00,
2013-02-28 06:38:00,14.9,5.6,30.36,South,179,3.0,6.0,66,0.00,FEW,,0.00,7.0,WeatherDisplay:10.37,2013-02-28 13:38:00,
2013-02-28 06:43:00,15.0,5.7,30.37,South,178,3.0,6.0,66,0.00,FEW,,0.00,11.0,WeatherDisplay:10.37,2013-02-28 13:43:00,
2013-02-28 06:48:00,15.1,5.8,30.50,South,175,3.0,5.0,66,0.00,FEW,,0.00,12.0,WeatherDisplay:10.37,2013-02-28 13:48:00,
2013-02-28 06:58:00,15.3,5.6,30.48,South,179,3.0,5.0,65,0.00,FEW,,0.00,21.0,WeatherDisplay:10.37,2013-02-28 13:58:00,
2013-02-28 07:03:00,15.5,5.8,30.47,South,182,3.0,6.0,65,0.00,FEW,,0.00,44.0,WeatherDisplay:10.37,2013-02-28 14:03:00,
2013-02-28 07:08:00,15.6,5.9,30.46,South,182,3.0,6.0,65,0.00,FEW,,0.00,46.0,WeatherDisplay:10.37,2013-02-28 14:08:00,
2013-02-28 07:18:00,16.1,6.4,30.60,South,177,2.0,6.0,65,0.00,FEW,,0.00,81.0,WeatherDisplay:10.37,2013-02-28 14:18:00,
2013-02-28 07:28:00,16.7,6.6,30.85,South,182,3.0,6.0,64,0.00,FEW,,0.00,144.0,WeatherDisplay:10.37,2013-02-28 14:28:00,
2013-02-28 07:33:00,17.1,7.0,30.58,South,181,3.0,5.0,64,0.00,FEW,,0.00,148.0,WeatherDisplay:10.37,2013-02-28 14:33:00,
2013-02-28 07:38:00,17.5,7.4,30.44,South,184,2.0,5.0,64,0.00,FEW,,0.00,100.0,WeatherDisplay:10.37,2013-02-28 14:38:00,
2013-02-28 07:43:00,17.9,7.4,30.44,South,176,2.0,4.0,63,0.00,FEW,,0.00,171.0,WeatherDisplay:10.37,2013-02-28 14:43:00,
2013-02-28 07:48:00,18.4,7.5,30.44,South,172,2.0,5.0,62,0.00,FEW,,0.00,137.0,WeatherDisplay:10.37,2013-02-28 14:48:00,
2013-02-28 07:53:00,18.9,8.1,31.01,South,179,2.0,6.0,62,0.00,FEW,,0.00,132.0,WeatherDisplay:10.37,2013-02-28 14:53:00,
2013-02-28 08:03:00,20.1,8.4,30.47,South,182,2.0,5.0,60,0.00,FEW,,0.00,37.0,WeatherDisplay:10.37,2013-02-28 15:03:00,
2013-02-28 08:08:00,20.7,8.6,30.46,South,182,2.0,3.0,59,0.00,FEW,,0.00,39.0,WeatherDisplay:10.37,2013-02-28 15:08:00,
2013-02-28 08:18:00,21.7,8.8,30.73,South,175,1.0,3.0,57,0.00,FEW,,0.00,229.0,WeatherDisplay:10.37,2013-02-28 15:18:00,
2013-02-28 08:28:00,22.6,9.3,30.55,South,175,0.0,0.0,56,0.00,FEW,,0.00,97.0,WeatherDisplay:10.37,2013-02-28 15:28:00,
2013-02-28 08:33:00,23.2,9.4,30.55,South,175,0.0,1.0,55,0.00,FEW,,0.00,267.0,WeatherDisplay:10.37,2013-02-28 15:33:00,
2013-02-28 08:38:00,23.8,10.0,30.49,South,175,0.0,3.0,55,0.00,FEW,,0.00,163.0,WeatherDisplay:10.37,2013-02-28 15:38:00,
2013-02-28 08:48:00,25.1,10.3,30.81,South,181,0.0,3.0,53,0.00,FEW,,0.00,188.0,WeatherDisplay:10.37,2013-02-28 15:48:00,
2013-02-28 08:58:00,26.2,10.5,30.94,South,185,2.0,6.0,51,0.00,FEW,,0.00,244.0,WeatherDisplay:10.37,2013-02-28 15:58:00,
2013-02-28 09:03:00,26.8,10.6,30.91,South,182,0.0,4.0,50,0.00,SCT,,0.00,316.0,WeatherDisplay:10.37,2013-02-28 16:03:00,
2013-02-28 09:08:00,27.4,10.3,30.46,South,180,1.0,3.0,48,0.00,SCT,,0.00,352.0,WeatherDisplay:10.37,2013-02-28 16:08:00,
2013-02-28 09:18:00,29.0,10.8,30.49,South,170,2.0,4.0,46,0.00,SCT,,0.00,350.0,WeatherDisplay:10.37,2013-02-28 16:18:00,
2013-02-28 09:23:00,30.0,11.7,30.48,SSE,165,0.0,3.0,46,0.00,SCT,,0.00,445.0,WeatherDisplay:10.37,2013-02-28 16:23:00,
2013-02-28 09:33:00,32.1,12.6,30.42,South,184,2.0,4.0,44,0.00,SCT,,0.00,264.0,WeatherDisplay:10.37,2013-02-28 16:33:00,
2013-02-28 09:38:00,32.9,12.3,30.45,SSW,203,1.0,3.0,42,0.00,SCT,,0.00,475.0,WeatherDisplay:10.37,2013-02-28 16:38:00,
2013-02-28 09:43:00,34.1,13.3,30.42,SSW,200,2.0,3.0,42,0.00,SCT,,0.00,355.0,WeatherDisplay:10.37,2013-02-28 16:43:00,
2013-02-28 09:48:00,35.0,13.7,30.43,South,181,2.0,4.0,41,0.00,SCT,,0.00,276.0,WeatherDisplay:10.37,2013-02-28 16:48:00,
2013-02-28 09:58:00,36.7,14.0,30.42,South,186,2.0,4.0,39,0.00,SCT,,0.00,587.0,WeatherDisplay:10.37,2013-02-28 16:58:00,
2013-02-28 10:03:00,37.3,14.0,30.47,South,186,1.0,5.0,38,0.00,SCT,,0.00,649.0,WeatherDisplay:10.37,2013-02-28 17:03:00,
2013-02-28 10:08:00,38.2,14.8,30.45,South,182,1.0,4.0,38,0.00,SCT,,0.00,401.0,WeatherDisplay:10.37,2013-02-28 17:08:00,
2013-02-28 10:18:00,39.3,13.9,30.42,SE,139,3.0,5.0,35,0.00,SCT,,0.00,425.0,WeatherDisplay:10.37,2013-02-28 17:18:00,
2013-02-28 10:23:00,39.6,14.8,30.52,SSE,147,1.0,4.0,36,0.00,SCT,,0.00,638.0,WeatherDisplay:10.37,2013-02-28 17:23:00,
2013-02-28 10:28:00,40.3,14.1,30.55,SSE,166,2.0,4.0,34,0.00,SCT,,0.00,568.0,WeatherDisplay:10.37,2013-02-28 17:28:00,
2013-02-28 10:33:00,40.8,13.9,30.50,SSE,154,1.0,3.0,33,0.00,SCT,,0.00,383.0,WeatherDisplay:10.37,2013-02-28 17:33:00,
2013-02-28 10:38:00,41.5,14.5,30.50,SE,146,0.0,4.0,33,0.00,SCT,,0.00,471.0,WeatherDisplay:10.37,2013-02-28 17:38:00,
2013-02-28 10:43:00,42.1,14.3,30.51,SSE,161,2.0,5.0,32,0.00,SCT,,0.00,656.0,WeatherDisplay:10.37,2013-02-28 17:43:00,
2013-02-28 10:48:00,42.4,13.9,30.51,South,176,3.0,5.0,31,0.00,SCT,,0.00,529.0,WeatherDisplay:10.37,2013-02-28 17:48:00,
2013-02-28 10:53:00,42.8,13.5,30.51,South,172,3.0,5.0,30,0.00,SCT,,0.00,524.0,WeatherDisplay:10.37,2013-02-28 17:53:00,
2013-02-28 10:58:00,42.8,13.5,30.51,SSE,158,3.0,3.0,30,0.00,SCT,,0.00,524.0,WeatherDisplay:10.37,2013-02-28 17:58:00,
2013-02-28 11:03:00,44.1,15.3,30.93,SSE,155,1.0,4.0,31,0.00,SCT,,0.00,800.0,WeatherDisplay:10.37,2013-02-28 18:03:00,
2013-02-28 11:08:00,44.9,14.5,30.40,SSE,159,1.0,5.0,29,0.00,RA,,0.01,575.0,WeatherDisplay:10.37,2013-02-28 18:08:00,
2013-02-28 11:18:00,45.9,14.6,30.39,SSE,157,1.0,3.0,28,0.00,RA,,0.01,455.0,WeatherDisplay:10.37,2013-02-28 18:18:00,
2013-02-28 11:28:00,46.3,14.1,30.64,WNW,302,3.0,9.0,27,0.00,RA,,0.01,499.0,WeatherDisplay:10.37,2013-02-28 18:28:00,
2013-02-28 11:33:00,45.6,12.6,30.64,NW,308,3.0,10.0,26,0.00,RA,,0.01,376.0,WeatherDisplay:10.37,2013-02-28 18:33:00,
2013-02-28 11:38:00,44.8,12.8,30.64,WNW,297,1.0,9.0,27,0.00,BKN,,0.01,664.0,WeatherDisplay:10.37,2013-02-28 18:38:00,
2013-02-28 11:48:00,44.0,12.9,30.55,NW,309,5.0,12.0,28,0.00,BKN,,0.01,403.0,WeatherDisplay:10.37,2013-02-28 18:48:00,
2013-02-28 11:58:00,44.0,13.7,30.55,NW,313,8.0,15.0,29,0.00,BKN,,0.01,791.0,WeatherDisplay:10.37,2013-02-28 18:58:00,
2013-02-28 12:03:00,43.9,13.6,30.55,NW,323,6.0,15.0,29,0.00,BKN,,0.01,754.0,WeatherDisplay:10.37,2013-02-28 19:03:00,
2013-02-28 12:08:00,43.3,13.9,30.55,NW,324,7.0,20.0,30,0.00,BKN,,0.01,564.0,WeatherDisplay:10.37,2013-02-28 19:08:00,
2013-02-28 12:13:00,42.7,13.3,31.29,NNW,327,8.0,23.0,30,0.00,BKN,,0.01,462.0,WeatherDisplay:10.37,2013-02-28 19:13:00,
2013-02-28 12:18:00,42.3,13.0,31.06,NW,308,9.0,18.0,30,0.00,BKN,,0.01,439.0,WeatherDisplay:10.37,2013-02-28 19:18:00,
2013-02-28 12:28:00,41.4,12.2,31.06,NW,315,10.0,23.0,30,0.00,BKN,,0.01,680.0,WeatherDisplay:10.37,2013-02-28 19:28:00,
2013-02-28 12:38:00,41.9,12.7,30.96,NW,317,9.0,21.0,30,0.00,BKN,,0.01,724.0,WeatherDisplay:10.37,2013-02-28 19:38:00,
2013-02-28 12:48:00,42.9,12.8,31.04,WNW,301,6.0,13.0,29,0.00,BKN,,0.01,626.0,WeatherDisplay:10.37,2013-02-28 19:48:00,
2013-02-28 12:53:00,43.2,12.2,31.23,WNW,296,6.0,12.0,28,0.00,BKN,,0.01,606.0,WeatherDisplay:10.37,2013-02-28 19:53:00,
2013-02-28 12:58:00,43.3,13.1,31.18,NW,305,8.0,17.0,29,0.00,BKN,,0.01,670.0,WeatherDisplay:10.37,2013-02-28 19:58:00,
2013-02-28 13:03:00,43.6,13.3,31.24,WNW,297,3.0,9.0,29,0.00,BKN,,0.01,524.0,WeatherDisplay:10.37,2013-02-28 20:03:00,
2013-02-28 13:08:00,43.7,13.5,31.24,West,281,3.0,12.0,29,0.00,BKN,,0.01,519.0,WeatherDisplay:10.37,2013-02-28 20:08:00,
2013-02-28 13:18:00,43.7,12.7,31.24,WNW,302,7.0,14.0,28,0.00,BKN,,0.01,462.0,WeatherDisplay:10.37,2013-02-28 20:18:00,
2013-02-28 13:23:00,43.5,13.3,31.47,NW,304,7.0,10.0,29,0.00,BKN,,0.01,394.0,WeatherDisplay:10.37,2013-02-28 20:23:00,
2013-02-28 13:28:00,43.2,13.0,31.64,WNW,302,5.0,10.0,29,0.00,BKN,,0.01,332.0,WeatherDisplay:10.37,2013-02-28 20:28:00,
2013-02-28 13:33:00,42.9,12.8,31.64,NW,305,2.0,13.0,29,0.00,BKN,,0.01,350.0,WeatherDisplay:10.37,2013-02-28 20:33:00,
2013-02-28 13:38:00,42.7,12.6,31.64,WNW,303,7.0,12.0,29,0.00,RA,,0.02,315.0,WeatherDisplay:10.37,2013-02-28 20:38:00,
2013-02-28 13:43:00,42.3,12.3,31.64,WNW,290,8.0,17.0,29,0.00,RA,,0.02,401.0,WeatherDisplay:10.37,2013-02-28 20:43:00,
2013-02-28 13:48:00,42.2,12.9,31.07,WNW,283,6.0,16.0,30,0.00,RA,,0.02,359.0,WeatherDisplay:10.37,2013-02-28 20:48:00,
2013-02-28 13:58:00,42.1,12.1,31.18,WNW,292,7.0,17.0,29,0.00,RA,,0.02,499.0,WeatherDisplay:10.37,2013-02-28 20:58:00,
2013-02-28 14:03:00,42.2,12.2,31.18,WNW,296,8.0,17.0,29,0.00,RA,,0.02,297.0,WeatherDisplay:10.37,2013-02-28 21:03:00,
2013-02-28 14:08:00,41.9,12.7,31.18,WNW,292,7.0,15.0,30,0.00,BKN,,0.02,348.0,WeatherDisplay:10.37,2013-02-28 21:08:00,
2013-02-28 14:13:00,41.9,13.4,31.18,WNW,286,8.0,17.0,31,0.00,BKN,,0.02,540.0,WeatherDisplay:10.37,2013-02-28 21:13:00,
2013-02-28 14:18:00,42.1,12.8,30.73,WNW,290,8.0,18.0,30,0.00,BKN,,0.02,538.0,WeatherDisplay:10.37,2013-02-28 21:18:00,
2013-02-28 14:23:00,42.2,13.7,30.73,West,280,9.0,24.0,31,0.00,BKN,,0.02,446.0,WeatherDisplay:10.37,2013-02-28 21:23:00,
2013-02-28 14:28:00,42.2,12.9,30.73,West,280,6.0,17.0,30,0.00,BKN,,0.02,466.0,WeatherDisplay:10.37,2013-02-28 21:28:00,
2013-02-28 14:33:00,41.9,14.2,30.73,WNW,282,8.0,20.0,32,0.00,BKN,,0.02,367.0,WeatherDisplay:10.37,2013-02-28 21:33:00,
2013-02-28 14:38:00,41.7,14.0,30.73,WNW,288,7.0,18.0,32,0.00,BKN,,0.02,387.0,WeatherDisplay:10.37,2013-02-28 21:38:00,
2013-02-28 14:48:00,41.6,14.6,30.73,WNW,287,6.0,16.0,33,0.00,BKN,,0.02,480.0,WeatherDisplay:10.37,2013-02-28 21:48:00,
2013-02-28 14:58:00,42.4,15.3,30.73,WNW,282,8.0,20.0,33,0.00,BKN,,0.02,397.0,WeatherDisplay:10.37,2013-02-28 21:58:00,
2013-02-28 15:03:00,42.6,14.8,30.73,WNW,287,8.0,16.0,32,0.00,BKN,,0.02,462.0,WeatherDisplay:10.37,2013-02-28 22:03:00,
2013-02-28 15:08:00,42.6,14.8,30.73,WNW,287,8.0,17.0,32,0.00,BKN,,0.02,396.0,WeatherDisplay:10.37,2013-02-28 22:08:00,
2013-02-28 15:18:00,42.4,14.6,30.73,WNW,285,7.0,13.0,32,0.00,BKN,,0.02,330.0,WeatherDisplay:10.37,2013-02-28 22:18:00,
2013-02-28 15:28:00,41.9,14.8,30.73,West,281,8.0,16.0,33,0.00,BKN,,0.02,262.0,WeatherDisplay:10.37,2013-02-28 22:28:00,
2013-02-28 15:38:00,41.4,15.1,30.73,West,275,5.0,16.0,34,0.00,BKN,,0.02,218.0,WeatherDisplay:10.37,2013-02-28 22:38:00,
2013-02-28 15:48:00,41.1,14.8,30.73,WNW,296,8.0,21.0,34,0.00,BKN,,0.02,211.0,WeatherDisplay:10.37,2013-02-28 22:48:00,
2013-02-28 15:58:00,40.5,15.0,30.73,NW,305,9.0,20.0,35,0.00,BKN,,0.02,151.0,WeatherDisplay:10.37,2013-02-28 22:58:00,
2013-02-28 16:03:00,40.3,14.8,30.73,NW,307,7.0,19.0,35,0.00,BKN,,0.02,144.0,WeatherDisplay:10.37,2013-02-28 23:03:00,
2013-02-28 16:08:00,40.1,14.6,30.73,WNW,295,8.0,23.0,35,0.00,BKN,,0.02,220.0,WeatherDisplay:10.37,2013-02-28 23:08:00,
2013-02-28 16:18:00,40.4,14.9,31.27,NW,306,8.0,19.0,35,0.00,BKN,,0.02,178.0,WeatherDisplay:10.37,2013-02-28 23:18:00,
2013-02-28 16:28:00,40.3,14.8,31.52,NW,315,9.0,18.0,35,0.00,BKN,,0.02,134.0,WeatherDisplay:10.37,2013-02-28 23:28:00,
2013-02-28 16:33:00,40.3,14.8,31.52,NNW,328,9.0,9.0,35,0.00,BKN,,0.02,134.0,WeatherDisplay:10.37,2013-02-28 23:33:00,
2013-02-28 16:38:00,39.7,14.9,31.17,NW,317,8.0,17.0,36,0.00,BKN,,0.02,84.0,WeatherDisplay:10.37,2013-02-28 23:38:00,
2013-02-28 16:48:00,39.1,15.0,31.17,NW,306,6.0,15.0,37,0.00,BKN,,0.02,67.0,WeatherDisplay:10.37,2013-02-28 23:48:00,
2013-02-28 16:53:00,38.8,15.3,31.17,NW,322,7.0,16.0,38,0.00,BKN,,0.02,60.0,WeatherDisplay:10.37,2013-02-28 23:53:00,
2013-02-28 16:58:00,38.5,15.7,31.18,NW,317,3.0,9.0,39,0.00,BKN,,0.02,56.0,WeatherDisplay:10.37,2013-02-28 23:58:00,
2013-02-28 17:03:00,38.3,16.1,31.11,NW,313,2.0,9.0,40,0.00,BKN,,0.02,49.0,WeatherDisplay:10.37,2013-03-01 00:03:00,
2013-02-28 17:08:00,38.2,16.5,31.11,NW,313,3.0,7.0,41,0.00,BKN,,0.02,42.0,WeatherDisplay:10.37,2013-03-01 00:08:00,
2013-02-28 17:18:00,37.7,15.5,31.17,NW,312,6.0,14.0,40,0.00,BKN,,0.02,33.0,WeatherDisplay:10.37,2013-03-01 00:18:00,
2013-02-28 17:28:00,37.5,15.3,31.17,NW,309,8.0,18.0,40,0.00,BKN,,0.02,21.0,WeatherDisplay:10.37,2013-03-01 00:28:00,
2013-02-28 17:38:00,37.2,15.7,31.17,WNW,287,5.0,10.0,41,0.00,BKN,,0.02,11.0,WeatherDisplay:10.37,2013-03-01 00:38:00,
2013-02-28 17:48:00,36.9,15.4,31.17,NW,311,3.0,10.0,41,0.00,BKN,,0.02,0.0,WeatherDisplay:10.37,2013-03-01 00:48:00,
2013-02-28 17:53:00,36.8,15.3,31.17,NW,304,5.0,12.0,41,0.00,BKN,,0.02,0.0,WeatherDisplay:10.37,2013-03-01 00:53:00,
2013-02-28 17:58:00,36.6,15.1,31.27,WNW,293,3.0,12.0,41,0.00,BKN,,0.02,0.0,WeatherDisplay:10.37,2013-03-01 00:58:00,
2013-02-28 18:03:00,36.4,14.4,31.27,WNW,291,6.0,14.0,40,0.00,BKN,,0.02,0.0,WeatherDisplay:10.37,2013-03-01 01:03:00,
2013-02-28 18:08:00,36.4,14.9,31.27,WNW,297,6.0,12.0,41,0.00,BKN,,0.02,0.0,WeatherDisplay:10.37,2013-03-01 01:08:00,
2013-02-28 18:13:00,36.3,14.3,31.27,NW,305,5.0,12.0,40,0.00,BKN,,0.02,0.0,WeatherDisplay:10.37,2013-03-01 01:13:00,
2013-02-28 18:18:00,36.3,14.3,31.27,NW,313,5.0,6.0,40,0.00,BKN,,0.02,0.0,WeatherDisplay:10.37,2013-03-01 01:18:00,
2013-02-28 18:23:00,36.3,14.3,31.27,NW,313,5.0,6.0,40,0.00,BKN,,0.02,0.0,WeatherDisplay:10.37,2013-03-01 01:23:00,
2013-02-28 18:28:00,36.3,14.3,31.27,NW,313,5.0,6.0,40,0.00,BKN,,0.02,0.0,WeatherDisplay:10.37,2013-03-01 01:28:00,
2013-02-28 18:33:00,36.3,14.3,31.27,NW,313,5.0,6.0,40,0.00,BKN,,0.02,0.0,WeatherDisplay:10.37,2013-03-01 01:33:00,
2013-02-28 18:38:00,36.3,14.3,31.27,NW,313,5.0,6.0,40,0.00,BKN,,0.02,0.0,WeatherDisplay:10.37,2013-03-01 01:38:00,
2013-02-28 18:48:00,36.3,14.3,31.27,NW,313,5.0,6.0,40,0.00,BKN,,0.02,0.0,WeatherDisplay:10.37,2013-03-01 01:48:00,
2013-02-28 18:53:00,36.3,14.3,31.27,NW,313,5.0,6.0,40,0.00,BKN,,0.02,0.0,WeatherDisplay:10.37,2013-03-01 01:53:00,
2013-02-28 19:03:00,36.3,14.3,31.27,NW,313,5.0,6.0,40,0.00,BKN,,0.02,0.0,WeatherDisplay:10.37,2013-03-01 02:03:00,
2013-02-28 19:08:00,36.3,14.3,31.27,NW,313,5.0,6.0,40,0.00,BKN,,0.02,0.0,WeatherDisplay:10.37,2013-03-01 02:08:00,
2013-02-28 19:13:00,36.3,14.3,31.27,NW,313,5.0,6.0,40,0.00,BKN,,0.02,0.0,WeatherDisplay:10.37,2013-03-01 02:13:00,
2013-02-28 19:18:00,36.3,14.3,31.27,NW,313,5.0,6.0,40,0.00,BKN,,0.02,0.0,WeatherDisplay:10.37,2013-03-01 02:18:00,
2013-02-28 19:23:00,36.3,14.3,31.27,NW,313,5.0,6.0,40,0.00,BKN,,0.02,0.0,WeatherDisplay:10.37,2013-03-01 02:23:00,
2013-02-28 19:28:00,36.3,14.3,31.27,NW,313,5.0,6.0,40,0.00,BKN,,0.02,0.0,WeatherDisplay:10.37,2013-03-01 02:28:00,
2013-02-28 19:38:00,36.3,14.3,31.27,NW,313,5.0,6.0,40,0.00,BKN,,0.02,0.0,WeatherDisplay:10.37,2013-03-01 02:38:00,
2013-02-28 19:48:00,36.3,14.3,31.27,NW,313,5.0,6.0,40,0.00,BKN,,0.02,0.0,WeatherDisplay:10.37,2013-03-01 02:48:00,
2013-02-28 19:53:00,36.3,14.3,31.27,NW,313,5.0,6.0,40,0.00,BKN,,0.02,0.0,WeatherDisplay:10.37,2013-03-01 02:53:00,
2013-02-28 20:03:00,36.6,15.1,30.77,NW,306,6.0,17.0,41,0.00,BKN,,0.02,0.0,WeatherDisplay:10.37,2013-03-01 03:03:00,
2013-02-28 20:08:00,36.6,15.1,30.45,WNW,297,7.0,14.0,41,0.00,BKN,,0.02,0.0,WeatherDisplay:10.37,2013-03-01 03:08:00,
2013-02-28 20:18:00,36.6,15.1,30.45,NW,318,10.0,20.0,41,0.00,BKN,,0.02,0.0,WeatherDisplay:10.37,2013-03-01 03:18:00,
2013-02-28 20:28:00,36.5,14.4,30.42,NW,306,10.0,20.0,40,0.00,BKN,,0.02,0.0,WeatherDisplay:10.37,2013-03-01 03:28:00,
2013-02-28 20:33:00,36.4,14.9,30.39,NW,310,8.0,19.0,41,0.00,BKN,,0.02,0.0,WeatherDisplay:10.37,2013-03-01 03:33:00,
2013-02-28 20:38:00,36.4,14.9,30.39,NW,317,7.0,20.0,41,0.00,BKN,,0.02,0.0,WeatherDisplay:10.37,2013-03-01 03:38:00,
2013-02-28 20:48:00,36.2,14.7,30.34,WNW,297,8.0,20.0,41,0.00,BKN,,0.02,0.0,WeatherDisplay:10.37,2013-03-01 03:48:00,
2013-02-28 20:53:00,36.2,14.7,30.35,WNW,303,8.0,21.0,41,0.00,BKN,,0.02,0.0,WeatherDisplay:10.37,2013-03-01 03:53:00,
2013-02-28 20:58:00,36.3,15.4,30.35,NW,306,7.0,16.0,42,0.00,BKN,,0.02,0.0,WeatherDisplay:10.37,2013-03-01 03:58:00,
2013-02-28 21:03:00,36.2,15.3,30.39,NW,307,6.0,18.0,42,0.00,BKN,,0.02,0.0,WeatherDisplay:10.37,2013-03-01 04:03:00,
2013-02-28 21:08:00,36.3,15.4,30.35,NW,319,7.0,16.0,42,0.00,BKN,,0.02,0.0,WeatherDisplay:10.37,2013-03-01 04:08:00,
2013-02-28 21:18:00,36.3,14.8,30.35,NW,315,8.0,21.0,41,0.00,BKN,,0.02,0.0,WeatherDisplay:10.37,2013-03-01 04:18:00,
2013-02-28 21:28:00,36.3,15.4,30.39,NW,311,5.0,18.0,42,0.00,BKN,,0.02,0.0,WeatherDisplay:10.37,2013-03-01 04:28:00,
2013-02-28 21:38:00,36.3,15.4,30.35,NW,308,6.0,15.0,42,0.00,BKN,,0.02,0.0,WeatherDisplay:10.37,2013-03-01 04:38:00,
2013-02-28 21:48:00,36.2,14.7,30.37,NW,322,9.0,20.0,41,0.00,BKN,,0.02,0.0,WeatherDisplay:10.37,2013-03-01 04:48:00,
2013-02-28 21:58:00,36.3,15.4,30.34,NW,310,8.0,14.0,42,0.00,BKN,,0.02,0.0,WeatherDisplay:10.37,2013-03-01 04:58:00,
2013-02-28 22:03:00,36.2,15.3,30.34,NW,309,6.0,16.0,42,0.00,BKN,,0.02,0.0,WeatherDisplay:10.37,2013-03-01 05:03:00,
2013-02-28 22:08:00,36.2,15.3,30.37,NW,313,3.0,12.0,42,0.00,BKN,,0.02,0.0,WeatherDisplay:10.37,2013-03-01 05:08:00,
2013-02-28 22:13:00,36.1,15.2,30.34,NW,314,5.0,13.0,42,0.00,BKN,,0.02,0.0,WeatherDisplay:10.37,2013-03-01 05:13:00,
2013-02-28 22:18:00,36.0,15.1,30.34,NW,311,5.0,10.0,42,0.00,BKN,,0.02,0.0,WeatherDisplay:10.37,2013-03-01 05:18:00,
2013-02-28 22:23:00,36.0,15.1,30.36,WNW,302,5.0,12.0,42,0.00,BKN,,0.02,0.0,WeatherDisplay:10.37,2013-03-01 05:23:00,
2013-02-28 22:28:00,36.0,15.1,30.34,NW,313,5.0,14.0,42,0.00,BKN,,0.02,0.0,WeatherDisplay:10.37,2013-03-01 05:28:00,
2013-02-28 22:38:00,35.9,15.0,30.58,NW,314,2.0,12.0,42,0.00,BKN,,0.02,0.0,WeatherDisplay:10.37,2013-03-01 05:38:00,
2013-02-28 22:48:00,35.9,15.0,30.75,NW,305,1.0,4.0,42,0.00,BKN,,0.02,0.0,WeatherDisplay:10.37,2013-03-01 05:48:00,
2013-02-28 22:53:00,35.8,14.9,30.74,WNW,285,0.0,5.0,42,0.00,BKN,,0.02,0.0,WeatherDisplay:10.37,2013-03-01 05:53:00,
2013-02-28 23:03:00,35.6,14.7,30.79,NW,314,1.0,4.0,42,0.00,BKN,,0.02,0.0,WeatherDisplay:10.37,2013-03-01 06:03:00,
2013-02-28 23:08:00,35.4,14.5,30.79,NW,318,2.0,5.0,42,0.00,BKN,,0.02,0.0,WeatherDisplay:10.37,2013-03-01 06:08:00,
2013-02-28 23:18:00,35.2,14.9,30.79,WNW,282,3.0,3.0,43,0.00,BKN,,0.02,0.0,WeatherDisplay:10.37,2013-03-01 06:18:00,
2013-02-28 23:28:00,34.9,14.6,31.60,WNW,282,0.0,9.0,43,0.00,BKN,,0.02,0.0,WeatherDisplay:10.37,2013-03-01 06:28:00,
2013-02-28 23:38:00,34.8,14.5,30.75,NW,307,1.0,5.0,43,0.00,BKN,,0.02,0.0,WeatherDisplay:10.37,2013-03-01 06:38:00,
2013-02-28 23:43:00,34.8,15.1,31.25,NW,306,1.0,5.0,44,0.00,BKN,,0.02,0.0,WeatherDisplay:10.37,2013-03-01 06:43:00,
2013-02-28 23:48:00,34.7,15.0,31.25,NW,325,1.0,8.0,44,0.00,BKN,,0.02,0.0,WeatherDisplay:10.37,2013-03-01 06:48:00,
2013-02-28 23:58:00,34.5,15.3,30.73,NW,318,2.0,10.0,45,0.00,RA,,0.00,0.0,WeatherDisplay:10.37,2013-03-01 06:58:00,